createdAt,value
2023-05-22T00:00:28.974Z,18.71
2023-05-22T00:01:28.983Z,18.75
2023-05-22T00:02:29.096Z,18.74
2023-05-22T00:03:29.066Z,18.67
2023-05-22T00:04:28.996Z,18.71
2023-05-22T00:05:29.006Z,18.71
2023-05-22T00:06:28.951Z,18.68
2023-05-22T00:07:28.946Z,18.75
2023-05-22T00:08:29.749Z,18.66
2023-05-22T00:09:28.936Z,18.68
2023-05-22T00:10:29.008Z,18.70
2023-05-22T00:11:28.938Z,18.71
2023-05-22T00:12:28.940Z,18.82
2023-05-22T00:13:28.940Z,18.83
2023-05-22T00:14:28.934Z,18.82
2023-05-22T00:15:28.914Z,18.86
2023-05-22T00:16:28.959Z,18.83
2023-05-22T00:17:28.933Z,18.82
2023-05-22T00:18:28.903Z,18.79
2023-05-22T00:19:28.938Z,18.78
2023-05-22T00:20:28.900Z,18.83
2023-05-22T00:21:28.896Z,18.85
2023-05-22T00:22:28.915Z,18.91
2023-05-22T00:23:28.907Z,18.85
2023-05-22T00:24:28.919Z,18.76
2023-05-22T00:25:28.886Z,18.74
2023-05-22T00:26:28.906Z,18.78
2023-05-22T00:27:28.873Z,18.83
2023-05-22T00:28:28.879Z,18.70
2023-05-22T00:29:28.870Z,18.71
2023-05-22T00:30:28.858Z,18.74
2023-05-22T00:31:28.882Z,18.67
2023-05-22T00:32:28.964Z,18.67
2023-05-22T00:33:28.864Z,18.54
2023-05-22T00:34:28.909Z,18.57
2023-05-22T00:35:28.841Z,18.54
2023-05-22T00:36:28.857Z,18.46
2023-05-22T00:37:30.914Z,18.51
2023-05-22T00:38:28.830Z,18.48
2023-05-22T00:39:28.844Z,18.51
2023-05-22T00:40:28.836Z,18.49
2023-05-22T00:41:28.828Z,18.51
2023-05-22T00:42:28.834Z,18.54
2023-05-22T00:43:28.843Z,18.52
2023-05-22T00:44:28.802Z,18.51
2023-05-22T00:45:28.833Z,18.51
2023-05-22T00:46:28.953Z,18.49
2023-05-22T00:47:28.855Z,18.54
2023-05-22T00:48:28.826Z,18.49
2023-05-22T00:49:28.822Z,18.48
2023-05-22T00:50:28.860Z,18.43
2023-05-22T00:51:28.806Z,18.26
2023-05-22T00:52:28.799Z,18.31
2023-05-22T00:53:28.785Z,18.38
2023-05-22T00:54:28.793Z,18.30
2023-05-22T00:55:28.767Z,18.30
2023-05-22T00:56:28.764Z,18.36
2023-05-22T00:57:28.751Z,18.34
2023-05-22T00:58:28.772Z,18.36
2023-05-22T00:59:28.763Z,18.41
2023-05-22T01:00:28.761Z,18.36
2023-05-22T01:01:28.760Z,18.30
2023-05-22T01:02:28.803Z,18.30
2023-05-22T01:03:28.834Z,18.28
2023-05-22T01:04:28.733Z,18.17
2023-05-22T01:05:28.732Z,18.13
2023-05-22T01:06:28.745Z,18.09
2023-05-22T01:07:28.722Z,18.05
2023-05-22T01:08:28.760Z,18.11
2023-05-22T01:09:28.736Z,18.18
2023-05-22T01:10:28.740Z,18.12
2023-05-22T01:11:28.697Z,18.15
2023-05-22T01:12:28.709Z,18.24
2023-05-22T01:13:28.697Z,18.21
2023-05-22T01:14:28.692Z,18.20
2023-05-22T01:15:28.725Z,18.21
2023-05-22T01:16:28.713Z,18.18
2023-05-22T01:17:28.771Z,18.27
2023-05-22T01:18:28.686Z,18.23
2023-05-22T01:19:28.742Z,18.17
2023-05-22T01:20:28.667Z,18.24
2023-05-22T01:21:28.663Z,18.26
2023-05-22T01:22:28.652Z,18.28
2023-05-22T01:23:28.655Z,18.24
2023-05-22T01:24:28.663Z,18.20
2023-05-22T01:25:28.631Z,18.20
2023-05-22T01:26:28.646Z,18.23
2023-05-22T01:27:28.619Z,18.18
2023-05-22T01:28:28.617Z,18.09
2023-05-22T01:29:28.635Z,18.12
2023-05-22T01:30:28.627Z,18.20
2023-05-22T01:31:28.644Z,18.20
2023-05-22T01:32:28.679Z,18.20
2023-05-22T01:33:28.718Z,18.09
2023-05-22T01:34:28.627Z,18.06
2023-05-22T01:35:28.593Z,18.13
2023-05-22T01:36:28.613Z,18.12
2023-05-22T01:37:28.601Z,18.12
2023-05-22T01:38:28.588Z,18.11
2023-05-22T01:39:28.583Z,18.18
2023-05-22T01:40:28.598Z,18.11
2023-05-22T01:41:28.593Z,18.12
2023-05-22T01:42:28.582Z,18.12
2023-05-22T01:43:28.559Z,18.13
2023-05-22T01:44:28.555Z,18.12
2023-05-22T01:45:49.614Z,18.15
2023-05-22T01:46:28.618Z,18.12
2023-05-22T01:47:28.556Z,18.15
2023-05-22T01:48:28.548Z,18.09
2023-05-22T01:49:28.573Z,18.02
2023-05-22T01:50:49.558Z,18.08
2023-05-22T01:51:28.528Z,18.05
2023-05-22T01:52:28.551Z,18.02
2023-05-22T01:53:28.535Z,17.97
2023-05-22T01:54:28.512Z,18.06
2023-05-22T01:55:28.534Z,18.05
2023-05-22T01:56:28.529Z,18.03
2023-05-22T01:57:28.519Z,18.09
2023-05-22T01:58:28.505Z,18.06
2023-05-22T01:59:28.500Z,18.02
2023-05-22T02:00:28.566Z,18.11
2023-05-22T02:01:28.564Z,17.99
2023-05-22T02:02:28.623Z,18.03
2023-05-22T02:03:28.607Z,17.96
2023-05-22T02:04:28.473Z,17.97
2023-05-22T02:05:28.496Z,18.03
2023-05-22T02:06:28.498Z,17.97
2023-05-22T02:07:28.484Z,17.79
2023-05-22T02:08:28.456Z,17.83
2023-05-22T02:09:28.478Z,17.79
2023-05-22T02:10:28.505Z,17.75
2023-05-22T02:11:28.486Z,17.59
2023-05-22T02:12:28.461Z,17.62
2023-05-22T02:13:28.438Z,17.63
2023-05-22T02:14:28.444Z,17.63
2023-05-22T02:15:28.484Z,17.66
2023-05-22T02:16:28.424Z,17.59
2023-05-22T02:17:28.492Z,17.62
2023-05-22T02:18:28.454Z,17.65
2023-05-22T02:19:28.440Z,17.62
2023-05-22T02:20:28.423Z,17.59
2023-05-22T02:21:28.419Z,17.57
2023-05-22T02:22:28.400Z,17.53
2023-05-22T02:23:28.406Z,17.68
2023-05-22T02:24:28.420Z,17.68
2023-05-22T02:25:28.396Z,17.69
2023-05-22T02:26:28.406Z,17.68
2023-05-22T02:27:28.411Z,17.63
2023-05-22T02:28:28.380Z,17.68
2023-05-22T02:29:28.373Z,17.63
2023-05-22T02:30:28.366Z,17.54
2023-05-22T02:31:28.434Z,17.50
2023-05-22T02:32:28.475Z,17.43
2023-05-22T02:33:28.387Z,17.53
2023-05-22T02:34:28.418Z,17.49
2023-05-22T02:35:28.353Z,17.41
2023-05-22T02:36:28.379Z,17.37
2023-05-22T02:37:28.342Z,17.39
2023-05-22T02:38:28.343Z,17.38
2023-05-22T02:39:28.351Z,17.35
2023-05-22T02:40:28.352Z,17.34
2023-05-22T02:41:28.325Z,17.37
2023-05-22T02:42:28.328Z,17.38
2023-05-22T02:43:28.305Z,17.41
2023-05-22T02:44:28.309Z,17.41
2023-05-22T02:45:28.328Z,17.46
2023-05-22T02:46:28.343Z,17.43
2023-05-22T02:47:28.397Z,17.49
2023-05-22T02:48:28.299Z,17.47
2023-05-22T02:49:28.296Z,17.50
2023-05-22T02:50:28.284Z,17.54
2023-05-22T02:51:28.302Z,17.53
2023-05-22T02:52:28.385Z,17.53
2023-05-22T02:53:28.279Z,17.56
2023-05-22T02:54:28.291Z,17.49
2023-05-22T02:55:28.258Z,17.65
2023-05-22T02:56:28.265Z,17.65
2023-05-22T02:57:28.265Z,17.65
2023-05-22T02:58:28.263Z,17.65
2023-05-22T02:59:28.244Z,17.50
2023-05-22T03:00:28.237Z,17.50
2023-05-22T03:01:28.277Z,17.49
2023-05-22T03:02:28.337Z,17.49
2023-05-22T03:03:28.314Z,17.66
2023-05-22T03:04:28.220Z,17.47
2023-05-22T03:05:28.217Z,17.50
2023-05-22T03:06:28.236Z,17.50
2023-05-22T03:07:28.229Z,17.46
2023-05-22T03:08:28.323Z,17.46
2023-05-22T03:09:28.214Z,17.37
2023-05-22T03:10:28.275Z,17.37
2023-05-22T03:11:28.190Z,17.38
2023-05-22T03:12:28.200Z,17.39
2023-05-22T03:13:28.173Z,17.37
2023-05-22T03:14:28.186Z,17.41
2023-05-22T03:15:28.170Z,17.38
2023-05-22T03:16:28.213Z,17.39
2023-05-22T03:17:28.237Z,17.39
2023-05-22T03:18:28.165Z,17.32
2023-05-22T03:19:28.270Z,17.38
2023-05-22T03:20:28.148Z,17.35
2023-05-22T03:21:28.147Z,17.34
2023-05-22T03:22:28.140Z,17.31
2023-05-22T03:23:28.155Z,17.41
2023-05-22T03:24:28.138Z,17.30
2023-05-22T03:25:28.137Z,17.32
2023-05-22T03:26:28.145Z,17.31
2023-05-22T03:27:28.121Z,17.30
2023-05-22T03:28:28.146Z,17.31
2023-05-22T03:29:28.128Z,17.34
2023-05-22T03:30:28.164Z,17.32
2023-05-22T03:31:28.102Z,17.25
2023-05-22T03:32:28.157Z,17.38
2023-05-22T03:33:28.126Z,17.34
2023-05-22T03:34:28.096Z,17.37
2023-05-22T03:35:28.116Z,17.43
2023-05-22T03:36:28.760Z,17.43
2023-05-22T03:37:28.074Z,17.39
2023-05-22T03:38:28.096Z,17.31
2023-05-22T03:39:28.079Z,17.34
2023-05-22T03:40:28.090Z,17.41
2023-05-22T03:41:28.066Z,17.35
2023-05-22T03:42:28.075Z,17.32
2023-05-22T03:43:28.070Z,17.27
2023-05-22T03:46:12.596Z,17.28
2023-05-22T03:47:12.537Z,17.27
2023-05-22T03:48:12.527Z,17.28
2023-05-22T03:49:12.516Z,17.19
2023-05-22T03:50:12.535Z,17.22
2023-05-22T03:51:12.514Z,17.13
2023-05-22T03:52:12.512Z,17.10
2023-05-22T03:53:12.499Z,17.01
2023-05-22T03:54:12.502Z,17.02
2023-05-22T03:55:12.492Z,17.02
2023-05-22T03:56:12.487Z,17.10
2023-05-22T03:57:12.489Z,17.13
2023-05-22T03:58:12.471Z,17.06
2023-05-22T03:59:12.481Z,17.13
2023-05-22T04:00:12.521Z,17.01
2023-05-22T04:01:12.472Z,17.13
2023-05-22T04:02:12.529Z,17.12
2023-05-22T04:03:12.572Z,17.09
2023-05-22T04:04:12.454Z,17.12
2023-05-22T04:05:12.513Z,17.09
2023-05-22T04:06:12.450Z,17.09
2023-05-22T04:07:12.435Z,16.92
2023-05-22T04:08:12.423Z,17.09
2023-05-22T04:09:12.426Z,17.01
2023-05-22T04:10:12.426Z,17.07
2023-05-22T04:11:12.421Z,17.06
2023-05-22T04:12:12.421Z,17.07
2023-05-22T04:13:12.407Z,17.16
2023-05-22T04:14:12.424Z,17.24
2023-05-22T04:15:12.398Z,17.22
2023-05-22T04:16:12.446Z,17.28
2023-05-22T04:17:12.388Z,17.32
2023-05-22T04:18:12.483Z,17.35
2023-05-22T04:19:12.441Z,17.35
2023-05-22T04:20:12.380Z,17.34
2023-05-22T04:21:12.375Z,17.41
2023-05-22T04:22:12.362Z,17.39
2023-05-22T04:23:12.365Z,17.37
2023-05-22T04:24:12.379Z,17.39
2023-05-22T04:25:12.352Z,17.46
2023-05-22T04:26:12.359Z,17.45
2023-05-22T04:27:12.351Z,17.46
2023-05-22T04:28:12.339Z,17.52
2023-05-22T04:29:12.332Z,17.50
2023-05-22T04:30:12.341Z,17.46
2023-05-22T04:31:12.391Z,17.53
2023-05-22T04:32:12.320Z,17.56
2023-05-22T04:33:12.389Z,17.49
2023-05-22T04:34:12.318Z,17.54
2023-05-22T04:35:12.359Z,17.52
2023-05-22T04:36:12.670Z,17.59
2023-05-22T04:37:33.314Z,17.59
2023-05-22T04:38:14.342Z,17.66
2023-05-22T04:39:12.328Z,17.68
2023-05-22T04:40:12.317Z,17.72
2023-05-22T04:41:12.285Z,17.86
2023-05-22T04:42:12.297Z,17.81
2023-05-22T04:43:12.291Z,17.79
2023-05-22T04:44:14.380Z,17.84
2023-05-22T04:45:12.272Z,17.86
2023-05-22T04:46:12.448Z,17.83
2023-05-22T04:47:12.331Z,17.79
2023-05-22T04:48:12.258Z,17.78
2023-05-22T04:49:12.302Z,17.88
2023-05-22T04:50:12.280Z,17.86
2023-05-22T04:51:12.264Z,17.93
2023-05-22T04:52:12.233Z,17.93
2023-05-22T04:53:12.234Z,17.87
2023-05-22T04:54:12.226Z,17.91
2023-05-22T04:55:12.246Z,17.87
2023-05-22T04:56:14.612Z,17.88
2023-05-22T04:57:12.217Z,17.94
2023-05-22T04:58:12.216Z,17.91
2023-05-22T04:59:12.216Z,17.96
2023-05-22T05:00:12.196Z,17.97
2023-05-22T05:01:12.239Z,18.03
2023-05-22T05:02:12.202Z,17.93
2023-05-22T05:03:12.262Z,17.94
2023-05-22T05:04:12.253Z,17.93
2023-05-22T05:05:12.181Z,17.93
2023-05-22T05:06:12.172Z,17.91
2023-05-22T05:07:12.164Z,17.88
2023-05-22T05:08:12.166Z,17.83
2023-05-22T05:09:12.162Z,17.78
2023-05-22T05:10:12.172Z,17.87
2023-05-22T05:11:12.153Z,17.86
2023-05-22T05:12:12.145Z,17.87
2023-05-22T05:13:12.143Z,17.97
2023-05-22T05:14:12.141Z,17.94
2023-05-22T05:15:12.153Z,17.91
2023-05-22T05:16:12.198Z,17.93
2023-05-22T05:17:12.123Z,17.97
2023-05-22T05:18:12.193Z,17.93
2023-05-22T05:19:12.176Z,18.01
2023-05-22T05:20:12.113Z,17.96
2023-05-22T05:21:12.109Z,17.99
2023-05-22T05:22:12.101Z,18.02
2023-05-22T05:23:12.110Z,17.99
2023-05-22T05:24:12.088Z,17.99
2023-05-22T05:25:12.086Z,17.96
2023-05-22T05:26:12.079Z,18.03
2023-05-22T05:27:12.076Z,18.02
2023-05-22T05:28:12.091Z,18.01
2023-05-22T05:29:12.092Z,18.01
2023-05-22T05:30:12.069Z,18.05
2023-05-22T05:31:12.070Z,18.09
2023-05-22T05:32:12.092Z,18.13
2023-05-22T05:33:12.148Z,18.17
2023-05-22T05:34:12.052Z,18.13
2023-05-22T05:35:12.043Z,18.27
2023-05-22T05:36:12.042Z,18.21
2023-05-22T05:37:12.037Z,18.18
2023-05-22T05:38:12.040Z,18.31
2023-05-22T05:39:12.046Z,18.31
2023-05-22T05:40:12.028Z,18.30
2023-05-22T05:41:12.058Z,18.27
2023-05-22T05:42:12.029Z,18.27
2023-05-22T05:43:12.009Z,18.28
2023-05-22T05:44:12.020Z,18.30
2023-05-22T05:45:11.997Z,18.31
2023-05-22T05:46:12.092Z,18.49
2023-05-22T05:47:12.009Z,18.38
2023-05-22T05:48:12.202Z,18.43
2023-05-22T05:49:12.016Z,18.43
2023-05-22T05:50:12.073Z,18.42
2023-05-22T05:51:12.007Z,18.43
2023-05-22T05:52:12.016Z,18.39
2023-05-22T05:53:11.970Z,18.49
2023-05-22T05:54:11.984Z,18.49
2023-05-22T05:55:11.987Z,18.54
2023-05-22T05:56:11.985Z,18.54
2023-05-22T05:57:11.957Z,18.57
2023-05-22T05:58:11.976Z,18.64
2023-05-22T05:59:11.961Z,18.58
2023-05-22T06:00:11.957Z,18.63
2023-05-22T06:01:11.955Z,18.68
2023-05-22T06:02:11.998Z,18.56
2023-05-22T06:03:12.067Z,18.64
2023-05-22T06:04:11.934Z,18.70
2023-05-22T06:05:11.995Z,18.68
2023-05-22T06:06:11.963Z,18.68
2023-05-22T06:07:11.936Z,18.75
2023-05-22T06:08:11.929Z,18.76
2023-05-22T06:09:11.911Z,18.64
2023-05-22T06:10:11.930Z,18.70
2023-05-22T06:11:11.906Z,18.75
2023-05-22T06:12:11.926Z,18.68
2023-05-22T06:13:11.916Z,18.66
2023-05-22T06:14:11.898Z,18.74
2023-05-22T06:15:11.885Z,18.67
2023-05-22T06:16:11.931Z,18.68
2023-05-22T06:17:11.867Z,18.74
2023-05-22T06:18:11.999Z,18.86
2023-05-22T06:19:11.939Z,18.79
2023-05-22T06:20:11.907Z,18.79
2023-05-22T06:21:11.875Z,18.79
2023-05-22T06:22:11.897Z,18.85
2023-05-22T06:23:11.869Z,18.86
2023-05-22T06:24:11.891Z,18.83
2023-05-22T06:25:11.850Z,18.94
2023-05-22T06:26:11.844Z,18.85
2023-05-22T06:27:11.866Z,18.82
2023-05-22T06:28:11.846Z,18.81
2023-05-22T06:29:11.833Z,18.83
2023-05-22T06:30:11.852Z,18.86
2023-05-22T06:31:11.818Z,18.85
2023-05-22T06:32:11.889Z,18.88
2023-05-22T06:33:11.869Z,18.94
2023-05-22T06:34:11.903Z,19.07
2023-05-22T06:35:11.879Z,18.98
2023-05-22T06:36:11.812Z,19.00
2023-05-22T06:37:11.801Z,19.00
2023-05-22T06:38:11.794Z,19.08
2023-05-22T06:39:11.819Z,19.07
2023-05-22T06:40:11.793Z,19.07
2023-05-22T06:41:11.816Z,19.09
2023-05-22T06:42:11.789Z,19.05
2023-05-22T06:43:11.782Z,19.15
2023-05-22T06:44:11.781Z,19.19
2023-05-22T06:45:11.796Z,19.20
2023-05-22T06:46:11.805Z,19.22
2023-05-22T06:47:11.773Z,19.19
2023-05-22T06:48:11.773Z,19.17
2023-05-22T06:49:11.767Z,19.31
2023-05-22T06:50:11.759Z,19.31
2023-05-22T06:51:11.821Z,19.31
2023-05-22T06:52:11.756Z,19.24
2023-05-22T06:53:11.745Z,19.24
2023-05-22T06:54:11.740Z,19.32
2023-05-22T06:55:11.749Z,19.37
2023-05-22T06:56:11.738Z,19.34
2023-05-22T06:57:11.743Z,19.27
2023-05-22T06:58:11.752Z,19.19
2023-05-22T06:59:11.729Z,19.05
2023-05-22T07:00:11.732Z,19.08
2023-05-22T07:01:11.736Z,19.05
2023-05-22T07:02:11.717Z,19.07
2023-05-22T07:03:11.738Z,19.07
2023-05-22T07:04:11.715Z,19.08
2023-05-22T07:05:11.709Z,19.05
2023-05-22T07:06:11.800Z,19.15
2023-05-22T07:07:11.707Z,19.19
2023-05-22T07:08:11.688Z,19.19
2023-05-22T07:09:11.697Z,19.24
2023-05-22T07:10:11.688Z,19.20
2023-05-22T07:11:11.683Z,19.24
2023-05-22T07:12:11.677Z,19.22
2023-05-22T07:13:11.675Z,19.24
2023-05-22T07:14:11.676Z,19.23
2023-05-22T07:15:11.665Z,19.24
2023-05-22T07:16:11.707Z,19.26
2023-05-22T07:17:11.663Z,19.30
2023-05-22T07:18:11.704Z,19.34
2023-05-22T07:19:11.712Z,19.26
2023-05-22T07:20:11.653Z,19.30
2023-05-22T07:21:11.670Z,19.24
2023-05-22T07:22:11.646Z,19.32
2023-05-22T07:23:11.651Z,19.37
2023-05-22T07:24:11.655Z,19.37
2023-05-22T07:25:11.640Z,19.31
2023-05-22T07:26:11.721Z,19.34
2023-05-22T07:27:11.632Z,19.47
2023-05-22T07:28:11.642Z,19.31
2023-05-22T07:29:11.615Z,19.34
2023-05-22T07:30:11.626Z,19.41
2023-05-22T07:31:11.637Z,19.31
2023-05-22T07:32:11.611Z,19.27
2023-05-22T07:33:11.708Z,19.34
2023-05-22T07:34:11.620Z,19.31
2023-05-22T07:35:11.610Z,19.30
2023-05-22T07:36:11.601Z,19.38
2023-05-22T07:37:11.598Z,19.42
2023-05-22T07:38:11.596Z,19.41
2023-05-22T07:39:11.596Z,19.45
2023-05-22T07:40:11.590Z,19.49
2023-05-22T07:41:11.583Z,19.44
2023-05-22T07:42:11.578Z,19.45
2023-05-22T07:43:11.575Z,19.37
2023-05-22T07:44:11.573Z,19.42
2023-05-22T07:45:11.569Z,19.41
2023-05-22T07:46:11.753Z,19.44
2023-05-22T07:47:11.568Z,19.47
2023-05-22T07:48:11.617Z,19.39
2023-05-22T07:49:11.560Z,19.52
2023-05-22T07:50:11.551Z,19.41
2023-05-22T07:51:11.547Z,19.52
2023-05-22T07:52:11.552Z,19.50
2023-05-22T07:53:11.539Z,19.49
2023-05-22T07:54:11.536Z,19.57
2023-05-22T07:55:11.526Z,19.57
2023-05-22T07:56:11.531Z,19.70
2023-05-22T07:57:11.547Z,19.74
2023-05-22T07:58:11.648Z,19.78
2023-05-22T07:59:11.517Z,19.86
2023-05-22T08:00:11.552Z,19.79
2023-05-22T08:01:11.520Z,19.84
2023-05-22T08:02:11.567Z,19.77
2023-05-22T08:03:11.568Z,19.87
2023-05-22T08:04:11.658Z,19.86
2023-05-22T08:05:11.547Z,19.75
2023-05-22T08:06:11.500Z,19.84
2023-05-22T08:07:11.493Z,19.84
2023-05-22T08:08:11.486Z,19.90
2023-05-22T08:09:11.488Z,19.96
2023-05-22T08:10:11.498Z,20.04
2023-05-22T08:11:11.497Z,19.99
2023-05-22T08:12:11.492Z,19.97
2023-05-22T08:13:11.473Z,19.97
2023-05-22T08:14:11.552Z,20.07
2023-05-22T08:15:11.473Z,20.07
2023-05-22T08:16:11.464Z,20.12
2023-05-22T08:17:11.510Z,20.22
2023-05-22T08:18:11.508Z,20.22
2023-05-22T08:19:11.512Z,20.14
2023-05-22T08:20:11.639Z,20.22
2023-05-22T08:21:11.442Z,20.34
2023-05-22T08:22:11.441Z,20.36
2023-05-22T08:23:11.505Z,20.48
2023-05-22T08:24:11.452Z,20.50
2023-05-22T08:25:11.439Z,20.41
2023-05-22T08:26:11.453Z,20.48
2023-05-22T08:27:11.431Z,20.42
2023-05-22T08:28:11.424Z,20.55
2023-05-22T08:29:11.422Z,20.60
2023-05-22T08:30:11.458Z,20.53
2023-05-22T08:31:11.471Z,20.55
2023-05-22T08:32:11.423Z,20.53
2023-05-22T08:33:11.437Z,20.61
2023-05-22T08:34:11.417Z,20.58
2023-05-22T08:35:11.413Z,20.63
2023-05-22T08:36:11.419Z,20.71
2023-05-22T08:37:11.405Z,20.73
2023-05-22T08:38:11.404Z,20.82
2023-05-22T08:39:11.401Z,20.86
2023-05-22T08:40:11.403Z,20.82
2023-05-22T08:41:11.457Z,20.65
2023-05-22T08:42:11.392Z,20.71
2023-05-22T08:43:11.413Z,20.75
2023-05-22T08:44:11.394Z,20.80
2023-05-22T08:45:11.402Z,20.93
2023-05-22T08:46:11.410Z,21.00
2023-05-22T08:47:11.471Z,21.03
2023-05-22T08:48:11.376Z,20.89
2023-05-22T08:49:11.379Z,20.85
2023-05-22T08:50:11.381Z,20.97
2023-05-22T08:51:11.379Z,21.04
2023-05-22T08:52:11.384Z,21.19
2023-05-22T08:53:11.402Z,21.37
2023-05-22T08:54:11.379Z,21.30
2023-05-22T08:55:11.370Z,21.43
2023-05-22T08:56:11.362Z,21.53
2023-05-22T08:57:11.373Z,21.55
2023-05-22T08:58:11.364Z,21.66
2023-05-22T08:59:11.359Z,21.77
2023-05-22T09:00:11.369Z,21.81
2023-05-22T09:01:11.374Z,21.80
2023-05-22T09:02:11.483Z,21.88
2023-05-22T09:03:11.446Z,21.77
2023-05-22T09:04:11.454Z,21.88
2023-05-22T09:05:11.352Z,21.94
2023-05-22T09:06:11.346Z,21.93
2023-05-22T09:07:11.352Z,22.03
2023-05-22T09:08:19.608Z,21.97
2023-05-22T09:09:11.355Z,21.94
2023-05-22T09:10:11.359Z,21.96
2023-05-22T09:11:11.361Z,21.94
2023-05-22T09:12:11.390Z,21.91
2023-05-22T09:13:11.398Z,22.07
2023-05-22T09:14:11.346Z,22.21
2023-05-22T09:15:11.355Z,22.21
2023-05-22T09:16:11.353Z,22.25
2023-05-22T09:17:11.568Z,22.23
2023-05-22T09:18:11.373Z,22.18
2023-05-22T09:19:11.396Z,22.15
2023-05-22T09:20:11.344Z,22.27
2023-05-22T09:21:25.698Z,22.23
2023-05-22T09:22:11.349Z,22.31
2023-05-22T09:23:11.365Z,22.46
2023-05-22T09:24:11.343Z,22.53
2023-05-22T09:25:11.353Z,22.61
2023-05-22T09:26:11.343Z,22.59
2023-05-22T09:27:11.361Z,22.67
2023-05-22T09:28:11.346Z,22.85
2023-05-22T09:29:11.347Z,22.92
2023-05-22T09:30:11.345Z,23.01
2023-05-22T09:31:11.397Z,22.93
2023-05-22T09:32:11.345Z,22.78
2023-05-22T09:33:11.353Z,22.68
2023-05-22T09:34:11.348Z,22.81
2023-05-22T09:35:11.346Z,22.91
2023-05-22T09:36:11.346Z,23.07
2023-05-22T09:37:11.353Z,23.17
2023-05-22T09:38:12.288Z,23.33
2023-05-22T09:39:11.363Z,23.34
2023-05-22T09:40:11.349Z,23.37
2023-05-22T09:41:11.346Z,23.46
2023-05-22T09:42:11.362Z,23.48
2023-05-22T09:43:11.363Z,23.48
2023-05-22T09:44:11.349Z,23.39
2023-05-22T09:45:11.359Z,23.37
2023-05-22T09:46:11.388Z,23.51
2023-05-22T09:47:11.397Z,23.61
2023-05-22T09:48:11.355Z,23.63
2023-05-22T09:49:14.158Z,23.73
2023-05-22T09:50:11.421Z,23.91
2023-05-22T09:51:11.366Z,23.81
2023-05-22T09:52:11.359Z,23.84
2023-05-22T09:53:11.358Z,23.82
2023-05-22T09:54:11.362Z,23.92
2023-05-22T09:55:11.375Z,23.91
2023-05-22T09:56:11.361Z,23.98
2023-05-22T09:57:11.382Z,23.94
2023-05-22T09:58:11.372Z,23.88
2023-05-22T09:59:11.376Z,23.84
2023-05-22T10:00:11.399Z,23.96
2023-05-22T10:01:11.383Z,23.85
2023-05-22T10:02:11.440Z,23.92
2023-05-22T10:03:11.404Z,24.08
2023-05-22T10:04:11.405Z,24.22
2023-05-22T10:05:11.395Z,24.16
2023-05-22T10:06:11.390Z,24.10
2023-05-22T10:07:11.402Z,24.11
2023-05-22T10:08:11.401Z,24.11
2023-05-22T10:09:11.390Z,24.34
2023-05-22T10:10:11.416Z,24.41
2023-05-22T10:11:11.416Z,24.47
2023-05-22T10:12:11.418Z,24.65
2023-05-22T10:13:11.413Z,24.65
2023-05-22T10:14:11.404Z,24.48
2023-05-22T10:15:11.431Z,24.40
2023-05-22T10:16:11.478Z,24.16
2023-05-22T10:17:11.427Z,24.22
2023-05-22T10:18:11.480Z,24.11
2023-05-22T10:19:11.468Z,24.10
2023-05-22T10:20:11.420Z,24.07
2023-05-22T10:21:11.430Z,23.82
2023-05-22T10:22:11.519Z,23.67
2023-05-22T10:23:11.434Z,23.84
2023-05-22T10:24:11.440Z,24.00
2023-05-22T10:25:11.452Z,23.94
2023-05-22T10:26:11.440Z,24.19
2023-05-22T10:27:11.446Z,24.34
2023-05-22T10:28:11.440Z,24.16
2023-05-22T10:29:11.446Z,24.11
2023-05-22T10:30:11.485Z,24.16
2023-05-22T10:31:11.457Z,24.04
2023-05-22T10:32:11.449Z,24.00
2023-05-22T10:33:11.527Z,24.00
2023-05-22T10:34:11.487Z,23.82
2023-05-22T10:35:11.465Z,23.69
2023-05-22T10:36:11.470Z,23.73
2023-05-22T10:37:17.122Z,23.78
2023-05-22T10:38:11.564Z,23.71
2023-05-22T10:39:11.468Z,23.74
2023-05-22T10:40:11.476Z,23.85
2023-05-22T10:41:11.475Z,23.86
2023-05-22T10:42:11.486Z,23.84
2023-05-22T10:43:11.482Z,23.86
2023-05-22T10:44:11.479Z,23.76
2023-05-22T10:45:11.479Z,23.74
2023-05-22T10:46:11.554Z,23.76
2023-05-22T10:47:11.535Z,23.64
2023-05-22T10:48:11.481Z,23.48
2023-05-22T10:49:11.492Z,23.56
2023-05-22T10:50:11.561Z,23.36
2023-05-22T10:51:11.494Z,23.37
2023-05-22T10:52:11.493Z,23.41
2023-05-22T10:53:11.501Z,23.42
2023-05-22T10:54:11.575Z,23.37
2023-05-22T10:55:11.513Z,23.44
2023-05-22T10:56:11.480Z,23.41
2023-05-22T10:57:11.491Z,23.39
2023-05-22T10:58:11.501Z,23.28
2023-05-22T10:59:11.505Z,23.18
2023-05-22T11:00:11.488Z,23.23
2023-05-22T11:01:11.509Z,23.14
2023-05-22T11:02:11.659Z,23.23
2023-05-22T11:03:18.006Z,23.34
2023-05-22T11:04:11.553Z,23.41
2023-05-22T11:05:11.583Z,23.39
2023-05-22T11:06:11.494Z,23.37
2023-05-22T11:07:11.496Z,23.41
2023-05-22T11:08:11.493Z,23.39
2023-05-22T11:09:11.502Z,23.41
2023-05-22T11:10:11.578Z,23.29
2023-05-22T11:11:11.517Z,23.44
2023-05-22T11:12:11.497Z,23.42
2023-05-22T11:13:11.497Z,23.44
2023-05-22T11:14:11.505Z,23.52
2023-05-22T11:15:11.492Z,23.52
2023-05-22T11:16:11.487Z,23.45
2023-05-22T11:17:11.543Z,23.44
2023-05-22T11:18:11.615Z,23.49
2023-05-22T11:19:22.653Z,23.45
2023-05-22T11:20:11.695Z,23.51
2023-05-22T11:21:11.507Z,23.61
2023-05-22T11:22:11.501Z,23.67
2023-05-22T11:23:11.522Z,23.59
2023-05-22T11:24:11.518Z,23.61
2023-05-22T11:25:11.525Z,23.60
2023-05-22T11:26:11.590Z,23.54
2023-05-22T11:27:11.501Z,23.49
2023-05-22T11:28:11.506Z,23.45
2023-05-22T11:29:11.500Z,23.45
2023-05-22T11:30:11.506Z,23.33
2023-05-22T11:31:11.531Z,23.33
2023-05-22T11:32:11.503Z,23.41
2023-05-22T11:33:11.552Z,23.42
2023-05-22T11:34:11.532Z,23.49
2023-05-22T11:35:11.505Z,23.60
2023-05-22T11:36:11.512Z,23.73
2023-05-22T11:37:11.498Z,23.63
2023-05-22T11:38:11.540Z,23.82
2023-05-22T11:39:11.505Z,23.74
2023-05-22T11:40:11.501Z,23.86
2023-05-22T11:41:11.494Z,23.82
2023-05-22T11:42:11.602Z,23.94
2023-05-22T11:43:11.528Z,23.94
2023-05-22T11:44:11.506Z,23.92
2023-05-22T11:45:11.509Z,23.82
2023-05-22T11:46:11.533Z,23.81
2023-05-22T11:47:11.510Z,23.76
2023-05-22T11:48:12.830Z,23.59
2023-05-22T11:49:11.511Z,23.56
2023-05-22T11:50:11.519Z,23.69
2023-05-22T11:51:11.535Z,23.59
2023-05-22T11:52:11.515Z,23.71
2023-05-22T11:53:11.503Z,23.78
2023-05-22T11:54:11.504Z,23.49
2023-05-22T11:55:11.519Z,23.60
2023-05-22T11:56:11.512Z,23.55
2023-05-22T11:57:11.503Z,23.71
2023-05-22T11:58:11.611Z,23.70
2023-05-22T11:59:11.508Z,23.66
2023-05-22T12:00:11.534Z,23.63
2023-05-22T12:01:11.514Z,23.66
2023-05-22T12:02:11.507Z,23.64
2023-05-22T12:03:11.542Z,23.85
2023-05-22T12:04:11.638Z,23.76
2023-05-22T12:05:11.507Z,23.79
2023-05-22T12:06:11.527Z,23.74
2023-05-22T12:07:11.508Z,23.84
2023-05-22T12:08:11.505Z,23.81
2023-05-22T12:09:11.502Z,23.94
2023-05-22T12:10:11.543Z,23.88
2023-05-22T12:11:11.507Z,23.96
2023-05-22T12:12:11.537Z,24.06
2023-05-22T12:13:11.497Z,24.08
2023-05-22T12:14:11.613Z,24.03
2023-05-22T12:15:11.543Z,24.06
2023-05-22T12:16:11.533Z,24.11
2023-05-22T12:17:11.508Z,24.04
2023-05-22T12:18:11.544Z,23.94
2023-05-22T12:19:11.580Z,23.97
2023-05-22T12:20:11.516Z,23.88
2023-05-22T12:21:11.514Z,23.81
2023-05-22T12:22:11.504Z,23.82
2023-05-22T12:23:11.514Z,23.74
2023-05-22T12:24:11.508Z,23.85
2023-05-22T12:25:11.506Z,23.66
2023-05-22T12:26:11.503Z,23.59
2023-05-22T12:27:11.509Z,23.66
2023-05-22T12:28:11.503Z,23.60
2023-05-22T12:29:11.510Z,23.56
2023-05-22T12:30:11.610Z,23.66
2023-05-22T12:31:11.517Z,23.78
2023-05-22T12:32:11.658Z,23.73
2023-05-22T12:33:11.556Z,23.81
2023-05-22T12:34:11.511Z,23.79
2023-05-22T12:35:11.539Z,23.79
2023-05-22T12:36:11.502Z,23.85
2023-05-22T12:37:11.550Z,23.96
2023-05-22T12:38:11.532Z,24.03
2023-05-22T12:39:11.551Z,24.07
2023-05-22T12:40:11.567Z,24.03
2023-05-22T12:41:11.523Z,24.07
2023-05-22T12:42:11.507Z,24.15
2023-05-22T12:43:11.514Z,24.15
2023-05-22T12:44:11.512Z,24.23
2023-05-22T12:45:11.554Z,24.13
2023-05-22T12:46:11.634Z,24.10
2023-05-22T12:47:11.507Z,24.11
2023-05-22T12:48:11.548Z,24.21
2023-05-22T12:49:11.513Z,24.15
2023-05-22T12:50:11.558Z,24.23
2023-05-22T12:51:11.513Z,24.37
2023-05-22T12:52:11.512Z,24.33
2023-05-22T12:53:11.513Z,24.31
2023-05-22T12:54:11.511Z,24.23